Time;durP1;ratioP1;P1;durP2;ratioP2;P2;SDS_P1;SDS_P2;PMS_P1;PMS_P2;Temp;Humidity;BMP_temperature;BMP_pressure;BME280_temperature;BME280_humidity;BME280_pressure;Samples;Min_cycle;Max_cycle;Signal;HPM_P1;HPM_P2
2021/09/08 00:01:08;;;;;;;17.42;12.38;;;17.10;99.90;;;;;;6125313;23;20530;-72
2021/09/08 00:03:35;;;;;;;15.25;13.65;;;17.00;99.90;;;;;;6125449;23;20169;-72
2021/09/08 00:06:03;;;;;;;16.77;15.00;;;17.00;99.90;;;;;;6126631;23;20205;-73
2021/09/08 00:08:30;;;;;;;14.32;12.40;;;17.00;99.90;;;;;;6125910;23;20169;-72
2021/09/08 00:10:57;;;;;;;17.23;13.70;;;17.10;99.90;;;;;;6124978;23;20204;-72
2021/09/08 00:13:26;;;;;;;14.15;12.38;;;17.10;99.90;;;;;;6125673;23;20165;-73
2021/09/08 00:15:53;;;;;;;20.58;14.35;;;17.00;99.90;;;;;;6125408;23;20176;-73
2021/09/08 00:18:20;;;;;;;19.55;13.85;;;17.00;99.90;;;;;;6126063;23;20183;-73
2021/09/08 00:20:47;;;;;;;18.23;13.63;;;16.90;99.90;;;;;;6124841;23;20210;-73
2021/09/08 00:23:15;;;;;;;18.67;12.60;;;16.90;99.90;;;;;;6126150;23;20172;-72
2021/09/08 00:25:42;;;;;;;16.30;13.30;;;16.90;99.90;;;;;;6125547;23;20404;-73
2021/09/08 00:28:10;;;;;;;16.33;13.48;;;16.80;99.90;;;;;;6125684;23;20393;-73
2021/09/08 00:30:39;;;;;;;15.98;13.70;;;16.80;99.90;;;;;;6124717;23;20180;-73
2021/09/08 00:33:06;;;;;;;14.07;12.55;;;16.70;99.90;;;;;;6125642;23;20180;-72
2021/09/08 00:35:33;;;;;;;17.67;13.63;;;16.80;99.90;;;;;;6126241;23;20177;-73
2021/09/08 00:38:00;;;;;;;14.68;12.88;;;16.80;99.90;;;;;;6125946;23;20165;-73
2021/09/08 00:40:27;;;;;;;14.10;12.27;;;16.80;99.90;;;;;;6125056;23;20160;-73
2021/09/08 00:42:54;;;;;;;13.63;11.75;;;16.80;99.90;;;;;;6125334;23;20247;-73
2021/09/08 00:45:21;;;;;;;15.15;13.43;;;16.90;99.90;;;;;;6125278;23;20178;-73
2021/09/08 00:47:50;;;;;;;14.50;12.73;;;16.80;99.90;;;;;;6125629;23;20187;-73
2021/09/08 00:50:17;;;;;;;17.30;12.23;;;16.80;99.90;;;;;;6124708;23;20434;-72
2021/09/08 00:52:45;;;;;;;13.60;11.90;;;16.80;99.90;;;;;;6125854;23;20198;-73
2021/09/08 00:55:13;;;;;;;14.02;11.60;;;16.80;99.90;;;;;;6125765;23;20907;-73
2021/09/08 00:57:41;;;;;;;15.90;12.00;;;16.80;99.90;;;;;;6125624;23;20472;-72
2021/09/08 01:00:09;;;;;;;13.27;11.05;;;16.90;99.90;;;;;;6125170;23;20165;-72
2021/09/08 01:02:39;;;;;;;14.82;12.00;;;16.90;99.90;;;;;;6124708;23;20200;-73
2021/09/08 01:05:09;;;;;;;13.50;10.80;;;16.90;99.90;;;;;;6125919;23;20188;-73
2021/09/08 01:07:36;;;;;;;11.27;10.17;;;16.90;99.90;;;;;;6125550;23;20606;-73
2021/09/08 01:10:05;;;;;;;14.55;10.88;;;16.90;99.90;;;;;;6124679;23;20931;-73
2021/09/08 01:12:32;;;;;;;13.75;10.73;;;16.90;99.90;;;;;;6125300;23;20205;-73
2021/09/08 01:14:59;;;;;;;14.82;12.25;;;16.90;99.90;;;;;;6125861;23;20165;-72
2021/09/08 01:17:26;;;;;;;12.25;10.73;;;16.90;99.90;;;;;;6125472;23;20474;-72
2021/09/08 01:19:53;;;;;;;11.90;10.00;;;16.90;99.90;;;;;;6124836;23;20164;-72
2021/09/08 01:22:29;;;;;;;12.60;10.57;;;16.90;99.90;;;;;;6125384;23;20432;-73
2021/09/08 01:24:58;;;;;;;11.40;10.30;;;16.90;99.90;;;;;;6125933;23;20228;-72
2021/09/08 01:27:27;;;;;;;11.80;9.70;;;16.80;99.90;;;;;;6125473;23;20874;-72
2021/09/08 01:29:54;;;;;;;10.93;9.80;;;16.80;99.90;;;;;;6125327;23;20437;-73
2021/09/08 01:32:21;;;;;;;13.32;10.55;;;16.80;99.90;;;;;;6125558;23;20436;-73
2021/09/08 01:34:52;;;;;;;12.13;10.93;;;16.80;99.90;;;;;;6125489;23;20184;-72
2021/09/08 01:37:19;;;;;;;10.63;9.52;;;16.80;99.90;;;;;;6126492;23;20416;-73
2021/09/08 01:40:05;;;;;;;11.97;10.03;;;16.80;99.90;;;;;;6124920;23;20164;-73
2021/09/08 01:42:32;;;;;;;13.00;10.95;;;16.80;99.90;;;;;;6125589;23;20432;-72
2021/09/08 01:44:59;;;;;;;12.60;10.35;;;16.70;99.90;;;;;;6125481;23;20603;-72
2021/09/08 01:47:34;;;;;;;10.93;9.80;;;16.70;99.90;;;;;;6126401;23;20165;-72
2021/09/08 01:50:01;;;;;;;10.82;9.80;;;16.70;99.90;;;;;;6125573;23;20187;-72
2021/09/08 01:52:28;;;;;;;8.88;7.97;;;16.80;99.90;;;;;;6125673;23;20678;-72
2021/09/08 01:55:05;;;;;;;11.95;10.20;;;16.80;99.90;;;;;;6125667;23;20166;-72
2021/09/08 01:57:33;;;;;;;13.93;9.90;;;16.80;99.90;;;;;;6125054;23;20506;-72
2021/09/08 02:00:00;;;;;;;11.73;10.53;;;16.80;99.90;;;;;;6125331;23;20453;-72
2021/09/08 02:03:12;;;;;;;10.88;9.63;;;16.80;99.90;;;;;;6125432;23;20946;-72
2021/09/08 02:05:53;;;;;;;11.23;9.38;;;16.70;99.90;;;;;;6125698;23;20192;-72
2021/09/08 02:08:20;;;;;;;11.57;10.37;;;16.70;99.90;;;;;;6125448;23;20171;-72
2021/09/08 02:10:48;;;;;;;11.50;9.40;;;16.60;99.90;;;;;;6124961;23;20752;-73
2021/09/08 02:13:16;;;;;;;13.38;10.93;;;16.60;99.90;;;;;;6125543;23;20163;-71
2021/09/08 02:15:44;;;;;;;10.88;9.60;;;16.50;99.90;;;;;;6125272;23;20722;-72
2021/09/08 02:18:11;;;;;;;10.38;9.13;;;16.40;99.90;;;;;;6125722;23;20469;-72
2021/09/08 02:20:38;;;;;;;11.98;9.05;;;16.40;99.90;;;;;;6124316;23;20170;-72
2021/09/08 02:23:05;;;;;;;12.15;10.65;;;16.30;99.90;;;;;;6125466;23;20171;-72
2021/09/08 02:25:32;;;;;;;11.57;9.88;;;16.30;99.90;;;;;;6124667;23;20167;-72
2021/09/08 02:28:01;;;;;;;13.10;11.73;;;16.30;99.90;;;;;;6125523;23;20166;-72
2021/09/08 02:30:29;;;;;;;12.10;10.30;;;16.20;99.90;;;;;;6124809;23;20665;-72
2021/09/08 02:32:56;;;;;;;11.55;10.30;;;16.20;99.90;;;;;;6126289;23;20163;-72
2021/09/08 02:35:23;;;;;;;12.25;10.90;;;16.20;99.90;;;;;;6126841;23;20249;-73
2021/09/08 02:37:50;;;;;;;11.45;10.25;;;16.10;99.90;;;;;;6126406;23;20167;-72
2021/09/08 02:40:17;;;;;;;12.00;10.80;;;16.10;99.90;;;;;;6126021;23;20163;-72
2021/09/08 02:42:44;;;;;;;11.55;9.50;;;16.00;99.90;;;;;;6126826;23;20202;-72
2021/09/08 02:45:13;;;;;;;12.40;11.10;;;16.00;99.90;;;;;;6126725;23;20173;-72
2021/09/08 02:47:40;;;;;;;12.20;10.00;;;16.10;99.90;;;;;;6126986;23;20165;-72
2021/09/08 02:50:09;;;;;;;10.57;9.48;;;16.10;99.90;;;;;;6125990;23;20183;-73
2021/09/08 02:52:36;;;;;;;14.98;11.13;;;16.00;99.90;;;;;;6126817;23;20665;-72
2021/09/08 02:55:05;;;;;;;14.13;11.00;;;16.10;99.90;;;;;;6126668;23;20165;-72
2021/09/08 02:57:32;;;;;;;19.50;11.20;;;16.10;99.90;;;;;;6127183;23;20603;-73
2021/09/08 02:59:59;;;;;;;12.60;9.65;;;16.10;99.90;;;;;;6126621;23;20165;-72
2021/09/08 03:02:28;;;;;;;12.05;10.18;;;16.10;99.90;;;;;;6127570;23;20198;-72
2021/09/08 03:04:55;;;;;;;12.68;9.95;;;16.10;99.90;;;;;;6127672;23;20537;-71
2021/09/08 03:07:33;;;;;;;14.93;9.77;;;16.20;99.90;;;;;;6126526;23;20167;-72
2021/09/08 03:10:00;;;;;;;10.68;9.27;;;16.20;99.90;;;;;;6126251;23;20658;-72
2021/09/08 03:12:43;;;;;;;12.68;10.15;;;16.20;99.90;;;;;;6127016;23;20218;-72
2021/09/08 03:15:11;;;;;;;10.43;9.48;;;16.10;99.90;;;;;;6127191;23;20163;-71
2021/09/08 03:17:54;;;;;;;12.40;10.27;;;16.10;99.90;;;;;;6126647;23;20175;-72
2021/09/08 03:20:21;;;;;;;14.23;10.65;;;16.00;99.90;;;;;;6126412;23;20167;-72
2021/09/08 03:22:48;;;;;;;13.07;11.52;;;16.00;99.90;;;;;;6127059;23;20209;-72
2021/09/08 03:25:16;;;;;;;13.02;10.40;;;16.00;99.90;;;;;;6127015;23;20162;-72
2021/09/08 03:27:43;;;;;;;10.68;9.57;;;15.90;99.90;;;;;;6125707;23;20244;-73
2021/09/08 03:30:11;;;;;;;12.02;10.52;;;15.90;99.90;;;;;;6124574;23;20222;-72
2021/09/08 03:32:38;;;;;;;11.10;9.10;;;15.90;99.90;;;;;;6125587;23;20202;-72
2021/09/08 03:35:07;;;;;;;9.75;8.57;;;15.90;99.90;;;;;;6126677;23;20163;-72
2021/09/08 03:37:34;;;;;;;11.88;10.48;;;15.90;99.90;;;;;;6126458;23;20166;-72
2021/09/08 03:40:02;;;;;;;12.77;10.25;;;15.90;99.90;;;;;;6125387;23;20163;-72
2021/09/08 03:42:29;;;;;;;15.75;12.23;;;15.90;99.90;;;;;;6126459;23;20212;-71
2021/09/08 03:44:57;;;;;;;12.88;11.00;;;15.90;99.90;;;;;;6126145;23;20168;-72
2021/09/08 03:47:25;;;;;;;12.68;11.38;;;15.90;99.90;;;;;;6126723;23;20164;-72
2021/09/08 03:49:52;;;;;;;12.27;10.60;;;15.90;99.90;;;;;;6125090;23;20186;-72
2021/09/08 03:52:21;;;;;;;11.38;9.75;;;15.90;99.90;;;;;;6125754;23;20237;-72
2021/09/08 03:54:48;;;;;;;12.35;10.35;;;15.90;99.90;;;;;;6126000;23;20495;-73
2021/09/08 03:57:15;;;;;;;12.38;10.50;;;15.90;99.90;;;;;;6125695;23;20165;-73
2021/09/08 03:59:42;;;;;;;12.68;9.75;;;15.90;99.90;;;;;;6125316;23;20167;-72
2021/09/08 04:02:09;;;;;;;12.63;10.05;;;15.80;99.90;;;;;;6125110;23;20739;-72
2021/09/08 04:04:37;;;;;;;11.60;10.40;;;15.90;99.90;;;;;;6125967;23;20178;-72
2021/09/08 04:07:04;;;;;;;12.77;9.95;;;15.80;99.90;;;;;;6125862;23;20170;-73
2021/09/08 04:09:35;;;;;;;14.05;11.55;;;15.80;99.90;;;;;;6125609;23;20245;-72
2021/09/08 04:12:02;;;;;;;15.00;11.50;;;15.80;99.90;;;;;;6125820;23;20198;-72
2021/09/08 04:14:29;;;;;;;14.10;10.32;;;15.70;99.90;;;;;;6125699;23;20168;-73
2021/09/08 04:16:56;;;;;;;12.38;11.07;;;15.60;99.90;;;;;;6125909;23;20162;-73
2021/09/08 04:19:23;;;;;;;15.48;11.63;;;15.60;99.90;;;;;;6125721;23;20169;-72
2021/09/08 04:21:50;;;;;;;13.40;10.43;;;15.60;99.90;;;;;;6125002;23;20545;-73
2021/09/08 04:24:17;;;;;;;15.48;11.20;;;15.60;99.90;;;;;;6125993;23;20166;-72
2021/09/08 04:26:46;;;;;;;23.83;12.80;;;15.60;99.90;;;;;;6126313;23;20488;-72
2021/09/08 04:29:14;;;;;;;14.30;12.13;;;15.60;99.90;;;;;;6125560;23;20166;-72
2021/09/08 04:31:41;;;;;;;15.23;11.68;;;15.70;99.90;;;;;;6124872;23;20203;-72
2021/09/08 04:34:10;;;;;;;13.82;10.98;;;15.70;99.90;;;;;;6125343;23;20166;-72
2021/09/08 04:36:37;;;;;;;12.50;11.00;;;15.70;99.90;;;;;;6125929;23;20189;-71
2021/09/08 04:39:04;;;;;;;17.77;12.95;;;15.80;99.90;;;;;;6125216;23;20163;-71
2021/09/08 04:41:32;;;;;;;14.13;11.60;;;15.80;99.90;;;;;;6124169;23;20644;-72
2021/09/08 04:44:00;;;;;;;14.68;12.02;;;15.80;99.90;;;;;;6125415;23;20177;-71
2021/09/08 04:46:28;;;;;;;13.15;11.75;;;15.80;99.90;;;;;;6124656;23;20166;-71
2021/09/08 04:48:55;;;;;;;14.10;11.60;;;15.80;99.90;;;;;;6125659;23;20225;-71
2021/09/08 04:51:22;;;;;;;16.27;12.55;;;15.80;99.90;;;;;;6123802;23;20207;-72
2021/09/08 04:53:50;;;;;;;22.02;11.68;;;15.70;99.90;;;;;;6125454;23;20174;-73
2021/09/08 04:56:17;;;;;;;18.10;12.52;;;15.70;99.90;;;;;;6125023;23;20595;-72
2021/09/08 04:58:44;;;;;;;13.73;11.95;;;15.70;99.90;;;;;;6125415;23;20186;-73
2021/09/08 05:01:12;;;;;;;16.33;12.77;;;15.80;99.90;;;;;;6123922;23;20202;-73
2021/09/08 05:03:41;;;;;;;16.98;13.18;;;15.80;99.90;;;;;;6124725;23;20189;-73
2021/09/08 05:06:08;;;;;;;20.15;13.30;;;15.80;99.90;;;;;;6125187;23;20189;-73
2021/09/08 05:08:35;;;;;;;12.82;11.15;;;15.90;99.90;;;;;;6125056;23;20170;-73
2021/09/08 05:11:02;;;;;;;14.93;12.07;;;16.00;99.90;;;;;;6124616;23;20206;-73
2021/09/08 05:13:30;;;;;;;15.63;12.50;;;16.00;99.90;;;;;;6125093;23;20171;-73
2021/09/08 05:16:00;;;;;;;16.27;13.27;;;16.00;99.90;;;;;;6125418;23;20185;-72
2021/09/08 05:18:28;;;;;;;14.80;12.23;;;16.00;99.90;;;;;;6125401;23;20185;-73
2021/09/08 05:20:55;;;;;;;19.40;13.25;;;16.10;99.90;;;;;;6124201;23;20219;-73
2021/09/08 05:23:22;;;;;;;20.38;13.63;;;16.10;99.90;;;;;;6125341;23;20171;-73
2021/09/08 05:25:51;;;;;;;25.40;13.70;;;16.10;99.90;;;;;;6125426;23;20187;-72
2021/09/08 05:28:19;;;;;;;16.95;14.50;;;16.10;99.90;;;;;;6125273;23;20250;-73
2021/09/08 05:30:46;;;;;;;16.73;14.00;;;16.10;99.90;;;;;;6124035;23;20562;-76
2021/09/08 05:33:14;;;;;;;14.57;12.85;;;16.10;99.90;;;;;;6124927;23;20163;-73
2021/09/08 05:35:42;;;;;;;19.85;13.13;;;16.10;99.90;;;;;;6124713;23;20592;-74
2021/09/08 05:38:09;;;;;;;17.13;12.88;;;16.20;99.90;;;;;;6125092;23;20183;-74
2021/09/08 05:40:37;;;;;;;16.73;12.55;;;16.30;99.90;;;;;;6123840;23;20167;-73
2021/09/08 05:43:04;;;;;;;16.85;12.95;;;16.40;99.90;;;;;;6124630;23;20187;-72
2021/09/08 05:45:31;;;;;;;23.13;13.50;;;16.60;99.90;;;;;;6124575;23;20173;-73
2021/09/08 05:47:58;;;;;;;21.65;14.07;;;16.70;99.90;;;;;;6125053;23;20172;-73
2021/09/08 05:50:25;;;;;;;19.42;12.45;;;16.70;99.90;;;;;;6124101;23;20271;-73
2021/09/08 05:52:54;;;;;;;18.30;13.40;;;17.00;99.90;;;;;;6124712;23;20521;-73
2021/09/08 05:55:22;;;;;;;17.20;13.57;;;17.40;99.90;;;;;;6124646;23;20417;-73
2021/09/08 05:57:49;;;;;;;15.80;11.63;;;18.00;99.90;;;;;;6126723;23;20435;-79
2021/09/08 06:00:17;;;;;;;14.97;11.63;;;18.90;99.90;;;;;;6125301;23;20476;-76
2021/09/08 06:02:44;;;;;;;15.83;12.00;;;19.80;99.90;;;;;;6126114;23;20991;-80
2021/09/08 06:05:12;;;;;;;12.50;10.43;;;21.00;99.90;;;;;;6126467;23;20517;-80
2021/09/08 06:07:39;;;;;;;16.13;10.77;;;22.00;99.90;;;;;;6127397;23;20407;-78
2021/09/08 06:10:09;;;;;;;13.80;10.87;;;23.00;99.90;;;;;;6127893;23;20484;-79
2021/09/08 06:12:36;;;;;;;13.47;10.87;;;23.80;99.90;;;;;;6128325;23;20781;-78
2021/09/08 06:15:04;;;;;;;13.33;11.50;;;24.30;97.60;;;;;;6127471;23;20394;-79
2021/09/08 06:17:34;;;;;;;13.60;11.93;;;24.90;96.00;;;;;;6126744;23;20403;-75
2021/09/08 06:20:01;;;;;;;12.07;10.87;;;25.30;94.60;;;;;;6127089;23;20397;-77
2021/09/08 06:22:29;;;;;;;15.30;10.20;;;25.80;93.80;;;;;;6127373;23;20429;-79
2021/09/08 06:24:56;;;;;;;16.17;13.70;;;26.40;92.50;;;;;;6130436;23;20444;-72
2021/09/08 16:29:23;;;;;;;6.00;4.20;;;25.60;76.80;;;;;;6036197;23;20419;-86
2021/09/08 16:31:51;;;;;;;6.37;4.57;;;25.60;76.90;;;;;;6123874;23;20418;-86
2021/09/08 16:34:18;;;;;;;6.20;4.90;;;25.60;77.00;;;;;;6168376;23;20416;-85
2021/09/08 16:36:45;;;;;;;5.63;3.97;;;25.60;77.50;;;;;;6178590;23;20396;-86
2021/09/08 16:39:12;;;;;;;6.57;5.23;;;25.60;77.40;;;;;;6176428;23;20527;-85
2021/09/08 16:41:39;;;;;;;7.47;5.70;;;25.50;78.10;;;;;;6175655;23;20442;-86
2021/09/08 16:44:06;;;;;;;7.20;4.93;;;25.50;78.30;;;;;;6174533;23;20876;-86
2021/09/08 16:46:35;;;;;;;5.00;4.50;;;25.50;78.90;;;;;;6174039;23;20412;-83
2021/09/08 16:49:03;;;;;;;4.83;3.70;;;25.50;79.00;;;;;;6174589;23;20456;-84
2021/09/08 16:51:30;;;;;;;5.30;4.80;;;25.50;78.60;;;;;;6174283;23;20409;-85
2021/09/08 16:53:57;;;;;;;7.47;5.43;;;25.40;79.30;;;;;;6169421;23;20465;-84
2021/09/08 16:56:25;;;;;;;9.13;5.40;;;25.40;79.40;;;;;;6173089;23;20433;-86
2021/09/08 16:58:52;;;;;;;5.77;5.13;;;25.30;79.50;;;;;;6161607;23;20544;-86
2021/09/08 17:01:20;;;;;;;12.07;5.10;;;25.20;79.50;;;;;;6166173;23;20468;-85
2021/09/08 17:03:48;;;;;;;6.20;5.30;;;25.10;79.30;;;;;;6164362;23;20413;-85
2021/09/08 17:06:15;;;;;;;12.10;6.87;;;25.10;79.70;;;;;;6165858;23;20404;-85
2021/09/08 17:08:42;;;;;;;8.67;6.70;;;25.10;80.00;;;;;;6167241;23;20420;-85
2021/09/08 17:11:10;;;;;;;7.27;5.50;;;25.00;80.70;;;;;;6172843;23;20411;-85
2021/09/08 17:13:37;;;;;;;6.20;5.60;;;25.00;80.60;;;;;;6176050;23;20480;-83
2021/09/08 17:16:05;;;;;;;10.00;5.07;;;25.00;80.50;;;;;;6176971;23;20399;-84
2021/09/08 17:18:32;;;;;;;6.23;5.00;;;24.90;80.80;;;;;;6179647;23;20415;-83
2021/09/08 17:21:00;;;;;;;11.37;6.23;;;24.90;80.80;;;;;;6180778;23;20401;-83
2021/09/08 17:23:27;;;;;;;5.37;4.50;;;24.80;81.20;;;;;;6180156;23;20408;-81
2021/09/08 17:25:55;;;;;;;8.87;4.77;;;24.80;81.00;;;;;;6180712;23;20524;-84
2021/09/08 17:28:22;;;;;;;9.23;4.27;;;24.80;81.30;;;;;;6178593;23;20428;-84
2021/09/08 17:30:49;;;;;;;5.50;4.53;;;24.80;81.70;;;;;;6190530;23;20489;-85
2021/09/08 17:33:16;;;;;;;6.77;4.50;;;24.80;81.60;;;;;;6207031;23;20395;-85
2021/09/08 17:35:43;;;;;;;5.67;5.07;;;24.70;81.70;;;;;;6207335;23;20411;-83
2021/09/08 17:38:12;;;;;;;5.40;4.60;;;24.60;82.10;;;;;;6207286;23;20429;-83
2021/09/08 17:40:41;;;;;;;6.00;4.80;;;24.60;82.20;;;;;;6208058;23;20414;-85
2021/09/08 17:43:09;;;;;;;5.60;5.00;;;24.50;82.00;;;;;;6207878;23;20430;-85
2021/09/08 17:45:36;;;;;;;5.43;4.77;;;24.50;82.60;;;;;;6207080;23;20390;-85
2021/09/08 17:48:04;;;;;;;4.90;4.40;;;24.40;83.00;;;;;;6207504;23;20419;-84
2021/09/08 17:50:33;;;;;;;8.70;5.50;;;24.30;83.70;;;;;;6205919;23;20484;-86
2021/09/08 17:53:01;;;;;;;6.27;5.60;;;24.30;84.10;;;;;;6199567;23;20403;-85
2021/09/08 17:55:30;;;;;;;8.27;5.80;;;24.20;84.70;;;;;;6196508;23;20425;-84
2021/09/08 17:57:58;;;;;;;7.63;6.77;;;24.20;85.50;;;;;;6197048;23;20487;-86
2021/09/08 18:00:26;;;;;;;16.30;6.90;;;24.10;85.90;;;;;;6197059;23;20475;-86
2021/09/08 18:02:53;;;;;;;7.50;4.87;;;24.00;86.40;;;;;;6203805;23;20952;-86
2021/09/08 18:05:20;;;;;;;7.50;5.97;;;24.00;86.90;;;;;;6207743;23;20422;-83
2021/09/08 18:07:48;;;;;;;7.77;6.40;;;23.90;87.20;;;;;;6208561;23;20479;-83
2021/09/08 18:10:22;;;;;;;9.67;6.50;;;23.80;87.80;;;;;;6209464;23;20462;-84
2021/09/08 18:12:51;;;;;;;8.67;6.17;;;23.70;88.30;;;;;;6208618;23;20387;-84
2021/09/08 18:15:19;;;;;;;8.60;6.73;;;23.60;88.80;;;;;;6206103;23;20435;-84
2021/09/08 18:17:48;;;;;;;7.60;5.90;;;23.60;89.20;;;;;;6206593;23;20442;-85
2021/09/08 18:20:17;;;;;;;7.70;5.50;;;23.50;89.50;;;;;;6207349;23;20435;-85
2021/09/08 18:22:45;;;;;;;7.07;5.77;;;23.40;90.00;;;;;;6207286;23;20423;-85
2021/09/08 18:25:12;;;;;;;8.30;6.07;;;23.30;90.10;;;;;;6204095;23;20462;-85
2021/09/08 18:27:40;;;;;;;6.30;5.70;;;23.20;90.10;;;;;;6201072;23;20777;-84
2021/09/08 18:30:12;;;;;;;8.10;6.70;;;23.20;90.40;;;;;;6199411;23;20431;-85
2021/09/08 18:32:39;;;;;;;7.60;6.50;;;23.10;90.50;;;;;;6198817;23;20387;-85
2021/09/08 18:35:08;;;;;;;6.97;5.30;;;23.00;90.60;;;;;;6197677;23;20412;-86
2021/09/08 18:37:36;;;;;;;6.17;5.50;;;23.00;90.70;;;;;;6198138;23;20436;-85
2021/09/08 18:40:04;;;;;;;7.27;5.57;;;22.90;90.80;;;;;;6197226;23;20945;-84
2021/09/08 18:42:32;;;;;;;6.67;5.40;;;22.90;90.90;;;;;;6200674;23;20439;-86
2021/09/08 18:44:59;;;;;;;6.27;5.50;;;22.80;90.90;;;;;;6194567;23;20788;-86
2021/09/08 18:47:28;;;;;;;7.90;6.17;;;22.60;90.90;;;;;;6197155;23;20486;-86
2021/09/08 18:49:55;;;;;;;7.30;5.87;;;22.70;91.00;;;;;;6195708;23;20422;-85
2021/09/08 18:52:22;;;;;;;6.50;5.27;;;22.60;91.20;;;;;;6197054;23;20410;-86
2021/09/08 18:54:49;;;;;;;8.10;6.27;;;22.60;91.30;;;;;;6197103;23;20407;-83
2021/09/08 18:57:17;;;;;;;5.70;5.10;;;22.60;91.40;;;;;;6196713;23;20422;-86
2021/09/08 18:59:44;;;;;;;8.83;7.03;;;22.50;91.50;;;;;;6196919;23;20488;-86
2021/09/08 19:02:11;;;;;;;7.37;6.47;;;22.50;91.80;;;;;;6195575;23;20458;-87
2021/09/08 19:04:40;;;;;;;7.33;6.00;;;22.50;91.70;;;;;;6198337;23;20418;-87
2021/09/08 19:07:07;;;;;;;8.43;6.87;;;22.40;91.90;;;;;;6196808;23;20412;-86
2021/09/08 19:09:34;;;;;;;8.00;6.00;;;22.40;91.90;;;;;;6198587;23;20414;-86
2021/09/08 19:12:01;;;;;;;7.83;6.00;;;22.40;92.00;;;;;;6199787;23;20438;-85
2021/09/08 19:14:28;;;;;;;7.00;5.77;;;22.30;92.10;;;;;;6201646;23;20432;-87
2021/09/08 19:16:56;;;;;;;7.03;6.07;;;22.30;92.20;;;;;;6199584;23;20414;-88
2021/09/08 19:19:23;;;;;;;8.03;6.20;;;22.30;92.30;;;;;;6199721;23;21009;-86
2021/09/08 19:21:52;;;;;;;7.70;6.90;;;22.20;92.50;;;;;;6199626;23;20523;-84
2021/09/08 19:24:19;;;;;;;7.30;6.43;;;22.20;92.60;;;;;;6201265;23;20486;-87
2021/09/08 19:26:46;;;;;;;7.83;6.80;;;22.10;93.10;;;;;;6197320;23;20489;-87
2021/09/08 19:29:13;;;;;;;10.97;6.50;;;21.90;93.70;;;;;;6197483;23;20438;-88
2021/09/08 19:31:40;;;;;;;20.30;14.57;;;21.90;93.90;;;;;;6197507;23;20420;-85
2021/09/08 19:34:08;;;;;;;17.43;13.27;;;21.80;94.40;;;;;;6196260;23;20475;-85
2021/09/08 19:36:35;;;;;;;9.50;6.37;;;21.70;94.80;;;;;;6195917;23;20422;-86
2021/09/08 19:39:04;;;;;;;10.20;6.57;;;21.60;94.80;;;;;;6196702;23;20427;-85
2021/09/08 19:41:31;;;;;;;16.10;8.63;;;21.50;95.20;;;;;;6198558;23;20479;-84
2021/09/08 19:43:58;;;;;;;8.87;7.10;;;21.40;95.60;;;;;;6195897;23;20411;-83
2021/09/08 19:46:25;;;;;;;10.30;7.60;;;21.40;95.90;;;;;;6196239;23;20411;-84
2021/09/08 19:48:52;;;;;;;9.23;7.00;;;21.30;96.10;;;;;;6196201;23;20483;-84
2021/09/08 19:51:19;;;;;;;23.30;18.00;;;21.30;96.40;;;;;;6194593;23;20412;-85
2021/09/08 19:53:47;;;;;;;13.67;10.60;;;21.20;97.20;;;;;;6194330;23;20409;-86
2021/09/08 19:56:15;;;;;;;14.60;8.60;;;21.10;97.30;;;;;;6194206;23;20408;-85
2021/09/08 19:58:43;;;;;;;11.33;8.70;;;21.00;98.00;;;;;;6204775;23;20435;-85
2021/09/08 20:01:10;;;;;;;11.03;7.50;;;21.00;98.00;;;;;;6207998;23;20448;-84
2021/09/08 20:03:38;;;;;;;8.90;6.93;;;20.90;97.80;;;;;;6207251;23;20445;-86
2021/09/08 20:06:05;;;;;;;9.60;7.33;;;20.90;97.90;;;;;;6206931;23;20397;-85
2021/09/08 20:08:33;;;;;;;12.80;8.30;;;20.80;98.10;;;;;;6205144;23;20441;-85
2021/09/08 20:11:00;;;;;;;16.97;12.90;;;20.80;98.00;;;;;;6203229;23;20815;-83
2021/09/08 20:13:29;;;;;;;16.07;8.67;;;20.90;98.40;;;;;;6196336;23;20407;-86
2021/09/08 20:15:56;;;;;;;11.03;9.87;;;20.80;98.70;;;;;;6195423;23;20561;-84
2021/09/08 20:18:23;;;;;;;18.30;11.40;;;20.60;99.60;;;;;;6195539;23;20435;-83
2021/09/08 20:20:52;;;;;;;7.97;6.83;;;20.50;99.90;;;;;;6199569;23;20422;-85
2021/09/08 20:23:20;;;;;;;11.10;7.30;;;20.50;99.70;;;;;;6205835;23;20447;-86
2021/09/08 20:25:48;;;;;;;10.63;7.47;;;20.40;99.90;;;;;;6197166;23;20412;-86
2021/09/08 20:28:15;;;;;;;13.17;9.27;;;20.30;99.90;;;;;;6195550;23;20423;-85
2021/09/08 20:30:44;;;;;;;8.47;6.83;;;20.20;99.90;;;;;;6194668;23;20489;-83
2021/09/08 20:33:11;;;;;;;10.70;8.53;;;20.20;99.90;;;;;;6195704;23;20745;-84
2021/09/08 20:35:38;;;;;;;9.50;7.60;;;20.10;99.90;;;;;;6194913;23;20506;-87
2021/09/08 20:38:06;;;;;;;9.77;7.30;;;19.90;99.90;;;;;;6195989;23;20416;-86
2021/09/08 20:40:33;;;;;;;8.27;7.27;;;20.10;99.90;;;;;;6195060;23;20429;-86
2021/09/08 20:43:00;;;;;;;13.23;7.63;;;20.00;99.90;;;;;;6193563;23;20443;-86
2021/09/08 20:45:27;;;;;;;10.93;7.77;;;20.00;99.90;;;;;;6194248;23;20414;-88
2021/09/08 20:47:56;;;;;;;10.47;7.37;;;19.90;99.90;;;;;;6192048;23;20424;-85
2021/09/08 20:50:23;;;;;;;14.70;7.50;;;19.90;99.90;;;;;;6194746;23;20443;-86
2021/09/08 20:52:50;;;;;;;10.20;7.93;;;19.90;99.90;;;;;;6196017;23;20413;-86
2021/09/08 20:55:18;;;;;;;8.80;6.80;;;19.80;99.90;;;;;;6197279;23;20920;-85
2021/09/08 20:57:45;;;;;;;11.00;7.70;;;19.80;99.90;;;;;;6200325;23;20412;-86
2021/09/08 21:00:36;;;;;;;9.10;7.60;;;19.80;99.90;;;;;;6205614;23;20400;-86
2021/09/08 21:03:04;;;;;;;11.17;8.40;;;19.70;99.90;;;;;;6185424;23;20462;-85
2021/09/08 21:05:31;;;;;;;8.60;6.50;;;19.70;99.90;;;;;;6211279;23;20392;-85
2021/09/08 21:07:59;;;;;;;9.10;8.20;;;19.60;99.90;;;;;;6211453;23;20423;-84
2021/09/08 21:10:26;;;;;;;10.00;7.70;;;19.50;99.90;;;;;;6211368;23;20407;-86
2021/09/08 21:12:53;;;;;;;10.00;7.70;;;19.50;99.90;;;;;;6204221;23;20412;-85
2021/09/08 21:15:20;;;;;;;7.70;6.77;;;19.50;99.90;;;;;;6194526;23;20816;-86
2021/09/08 21:17:48;;;;;;;9.40;7.50;;;19.40;99.90;;;;;;6195048;23;20458;-86
2021/09/08 21:20:16;;;;;;;8.10;7.30;;;19.40;99.90;;;;;;6196195;23;20407;-86
2021/09/08 21:22:44;;;;;;;7.90;6.67;;;19.30;99.90;;;;;;6194292;23;20443;-85
2021/09/08 21:25:18;;;;;;;11.67;7.83;;;19.30;99.90;;;;;;6194763;23;20434;-86
2021/09/08 21:27:48;;;;;;;8.90;8.00;;;19.20;99.90;;;;;;6193309;23;20446;-87
2021/09/08 21:30:15;;;;;;;8.60;7.23;;;19.20;99.90;;;;;;6194603;23;20440;-85
2021/09/08 21:32:43;;;;;;;8.87;7.97;;;19.20;99.90;;;;;;6193468;23;20407;-85
2021/09/08 21:35:10;;;;;;;11.77;7.53;;;19.10;99.90;;;;;;6193876;23;20476;-85
2021/09/08 21:37:39;;;;;;;9.90;8.70;;;19.10;99.90;;;;;;6194430;23;20434;-85
2021/09/08 21:40:08;;;;;;;8.53;7.07;;;19.10;99.90;;;;;;6195306;23;20709;-85
2021/09/08 21:42:35;;;;;;;8.73;7.10;;;19.00;99.90;;;;;;6195606;23;20542;-85
2021/09/08 21:45:03;;;;;;;9.50;7.17;;;19.00;99.90;;;;;;6194980;23;20486;-86
2021/09/08 21:47:30;;;;;;;10.37;8.80;;;19.00;99.90;;;;;;6196459;23;20431;-86
2021/09/08 21:49:58;;;;;;;10.07;8.17;;;19.00;99.90;;;;;;6202546;23;20426;-85
2021/09/08 21:52:25;;;;;;;7.43;6.73;;;19.00;99.90;;;;;;6212640;23;20465;-83
2021/09/08 21:54:53;;;;;;;9.23;7.50;;;18.90;99.90;;;;;;6213168;23;20427;-82
2021/09/08 21:57:20;;;;;;;8.27;7.47;;;18.90;99.90;;;;;;6213654;23;20398;-83
2021/09/08 21:59:47;;;;;;;7.80;6.80;;;18.90;99.90;;;;;;6204861;23;20404;-85
2021/09/08 22:02:14;;;;;;;9.83;8.40;;;19.00;99.90;;;;;;6195143;23;20476;-84
2021/09/08 22:04:42;;;;;;;9.10;7.33;;;19.00;99.90;;;;;;6195620;23;20412;-85
2021/09/08 22:07:09;;;;;;;9.27;7.40;;;19.00;99.90;;;;;;6194633;23;20864;-85
2021/09/08 22:09:36;;;;;;;8.30;7.50;;;18.90;99.90;;;;;;6194450;23;20469;-85
2021/09/08 22:12:06;;;;;;;11.90;10.00;;;18.90;99.90;;;;;;6194040;23;20418;-85
2021/09/08 22:14:33;;;;;;;10.27;8.23;;;18.80;99.90;;;;;;6195134;23;20412;-85
2021/09/08 22:17:00;;;;;;;10.23;8.20;;;18.80;99.90;;;;;;6196621;23;20408;-85
2021/09/08 22:19:28;;;;;;;9.33;8.10;;;18.70;99.90;;;;;;6197496;23;20432;-86
2021/09/08 22:21:55;;;;;;;9.83;8.10;;;18.70;99.90;;;;;;6197557;23;20408;-86
2021/09/08 22:24:22;;;;;;;10.47;8.23;;;18.70;99.90;;;;;;6205921;23;20489;-83
2021/09/08 22:26:50;;;;;;;11.83;8.40;;;18.70;99.90;;;;;;6194557;23;20419;-85
2021/09/08 22:29:18;;;;;;;8.83;7.93;;;18.70;99.90;;;;;;6196749;23;20427;-85
2021/09/08 22:31:45;;;;;;;11.17;8.33;;;18.60;99.90;;;;;;6197986;23;20925;-85
2021/09/08 22:34:12;;;;;;;9.70;8.70;;;18.60;99.90;;;;;;6200685;23;20384;-85
2021/09/08 22:36:40;;;;;;;8.93;7.67;;;18.50;99.90;;;;;;6197067;23;20403;-85
2021/09/08 22:39:07;;;;;;;11.87;9.63;;;18.60;99.90;;;;;;6196517;23;20458;-84
2021/09/08 22:41:34;;;;;;;14.33;9.00;;;18.50;99.90;;;;;;6196691;23;20411;-85